sensor_id;sensor_type;location;lat;lon;timestamp;P1;durP1;ratioP1;P2;durP2;ratioP2
38859;SDS011;24609;48.316;16.174;2023-07-16T00:01:05;7.57;;;5.15;;
38859;SDS011;24609;48.316;16.174;2023-07-16T00:03:31;7.70;;;5.03;;
38859;SDS011;24609;48.316;16.174;2023-07-16T00:05:57;8.10;;;5.40;;
38859;SDS011;24609;48.316;16.174;2023-07-16T00:08:22;6.00;;;4.88;;
38859;SDS011;24609;48.316;16.174;2023-07-16T00:10:48;8.55;;;5.53;;
38859;SDS011;24609;48.316;16.174;2023-07-16T00:13:14;6.68;;;4.80;;
38859;SDS011;24609;48.316;16.174;2023-07-16T00:15:39;6.07;;;5.25;;
38859;SDS011;24609;48.316;16.174;2023-07-16T00:18:05;6.60;;;5.18;;
38859;SDS011;24609;48.316;16.174;2023-07-16T00:20:31;8.55;;;4.75;;
38859;SDS011;24609;48.316;16.174;2023-07-16T00:22:57;7.30;;;5.07;;
38859;SDS011;24609;48.316;16.174;2023-07-16T00:25:23;9.10;;;5.57;;
38859;SDS011;24609;48.316;16.174;2023-07-16T00:27:49;7.30;;;5.20;;
38859;SDS011;24609;48.316;16.174;2023-07-16T00:30:14;9.85;;;5.65;;
38859;SDS011;24609;48.316;16.174;2023-07-16T00:32:40;8.65;;;4.85;;
38859;SDS011;24609;48.316;16.174;2023-07-16T00:35:06;8.38;;;5.05;;
38859;SDS011;24609;48.316;16.174;2023-07-16T00:37:33;5.95;;;4.95;;
38859;SDS011;24609;48.316;16.174;2023-07-16T00:39:59;8.40;;;5.38;;
38859;SDS011;24609;48.316;16.174;2023-07-16T00:42:25;7.45;;;5.45;;
38859;SDS011;24609;48.316;16.174;2023-07-16T00:44:50;8.95;;;4.88;;
38859;SDS011;24609;48.316;16.174;2023-07-16T00:47:16;7.25;;;4.65;;
38859;SDS011;24609;48.316;16.174;2023-07-16T00:49:42;9.88;;;4.78;;
38859;SDS011;24609;48.316;16.174;2023-07-16T00:52:08;10.68;;;5.45;;
38859;SDS011;24609;48.316;16.174;2023-07-16T00:54:41;8.02;;;4.93;;
38859;SDS011;24609;48.316;16.174;2023-07-16T00:57:07;7.25;;;5.15;;
38859;SDS011;24609;48.316;16.174;2023-07-16T00:59:33;8.50;;;5.45;;
38859;SDS011;24609;48.316;16.174;2023-07-16T01:01:59;7.85;;;5.38;;
38859;SDS011;24609;48.316;16.174;2023-07-16T01:04:24;6.45;;;5.28;;
38859;SDS011;24609;48.316;16.174;2023-07-16T01:06:51;7.10;;;5.20;;
38859;SDS011;24609;48.316;16.174;2023-07-16T01:09:20;9.38;;;5.28;;
38859;SDS011;24609;48.316;16.174;2023-07-16T01:11:47;7.97;;;4.93;;
38859;SDS011;24609;48.316;16.174;2023-07-16T01:14:14;7.05;;;5.80;;
38859;SDS011;24609;48.316;16.174;2023-07-16T01:16:42;5.97;;;5.00;;
38859;SDS011;24609;48.316;16.174;2023-07-16T01:19:08;7.72;;;5.43;;
38859;SDS011;24609;48.316;16.174;2023-07-16T01:21:35;7.38;;;5.45;;
38859;SDS011;24609;48.316;16.174;2023-07-16T01:29:36;6.82;;;5.57;;
38859;SDS011;24609;48.316;16.174;2023-07-16T01:32:16;8.05;;;5.43;;
38859;SDS011;24609;48.316;16.174;2023-07-16T01:34:42;8.23;;;5.50;;
38859;SDS011;24609;48.316;16.174;2023-07-16T01:37:09;8.68;;;5.45;;
38859;SDS011;24609;48.316;16.174;2023-07-16T01:39:35;5.70;;;4.93;;
38859;SDS011;24609;48.316;16.174;2023-07-16T01:42:02;11.00;;;5.93;;
38859;SDS011;24609;48.316;16.174;2023-07-16T01:44:28;7.22;;;5.57;;
38859;SDS011;24609;48.316;16.174;2023-07-16T01:47:00;8.75;;;5.70;;
38859;SDS011;24609;48.316;16.174;2023-07-16T01:49:32;6.93;;;6.18;;
38859;SDS011;24609;48.316;16.174;2023-07-16T01:51:59;7.97;;;5.63;;
38859;SDS011;24609;48.316;16.174;2023-07-16T01:54:26;8.02;;;6.03;;
38859;SDS011;24609;48.316;16.174;2023-07-16T01:56:51;9.80;;;5.40;;
38859;SDS011;24609;48.316;16.174;2023-07-16T01:59:17;9.05;;;5.78;;
38859;SDS011;24609;48.316;16.174;2023-07-16T02:01:43;8.05;;;5.70;;
38859;SDS011;24609;48.316;16.174;2023-07-16T02:04:08;10.13;;;5.30;;
38859;SDS011;24609;48.316;16.174;2023-07-16T02:06:34;9.80;;;5.40;;
38859;SDS011;24609;48.316;16.174;2023-07-16T02:08:59;6.03;;;5.32;;
38859;SDS011;24609;48.316;16.174;2023-07-16T02:11:25;9.02;;;5.93;;
38859;SDS011;24609;48.316;16.174;2023-07-16T02:13:51;11.07;;;5.85;;
38859;SDS011;24609;48.316;16.174;2023-07-16T02:16:16;9.68;;;5.55;;
38859;SDS011;24609;48.316;16.174;2023-07-16T02:18:42;10.20;;;5.78;;
38859;SDS011;24609;48.316;16.174;2023-07-16T02:21:08;11.63;;;6.05;;
38859;SDS011;24609;48.316;16.174;2023-07-16T02:23:33;9.20;;;5.57;;
38859;SDS011;24609;48.316;16.174;2023-07-16T02:25:59;8.55;;;5.68;;
38859;SDS011;24609;48.316;16.174;2023-07-16T02:28:25;10.13;;;6.25;;
38859;SDS011;24609;48.316;16.174;2023-07-16T02:30:51;7.53;;;5.57;;
38859;SDS011;24609;48.316;16.174;2023-07-16T02:33:16;9.55;;;6.28;;
38859;SDS011;24609;48.316;16.174;2023-07-16T02:35:46;8.73;;;5.88;;
38859;SDS011;24609;48.316;16.174;2023-07-16T02:38:13;7.85;;;6.15;;
38859;SDS011;24609;48.316;16.174;2023-07-16T02:40:46;8.48;;;5.80;;
38859;SDS011;24609;48.316;16.174;2023-07-16T02:43:13;6.45;;;5.38;;
38859;SDS011;24609;48.316;16.174;2023-07-16T02:45:39;10.55;;;5.70;;
38859;SDS011;24609;48.316;16.174;2023-07-16T02:48:05;7.63;;;5.38;;
38859;SDS011;24609;48.316;16.174;2023-07-16T02:50:37;11.93;;;5.65;;
38859;SDS011;24609;48.316;16.174;2023-07-16T02:53:06;7.07;;;5.53;;
38859;SDS011;24609;48.316;16.174;2023-07-16T02:55:32;6.75;;;5.78;;
38859;SDS011;24609;48.316;16.174;2023-07-16T02:57:59;7.43;;;5.35;;
38859;SDS011;24609;48.316;16.174;2023-07-16T03:00:29;6.63;;;5.28;;
38859;SDS011;24609;48.316;16.174;2023-07-16T03:02:58;7.25;;;5.68;;
38859;SDS011;24609;48.316;16.174;2023-07-16T03:05:24;8.30;;;6.03;;
38859;SDS011;24609;48.316;16.174;2023-07-16T03:07:51;7.20;;;5.05;;
38859;SDS011;24609;48.316;16.174;2023-07-16T03:10:16;8.45;;;5.80;;
38859;SDS011;24609;48.316;16.174;2023-07-16T03:12:42;7.57;;;5.50;;
38859;SDS011;24609;48.316;16.174;2023-07-16T03:15:08;8.30;;;5.55;;
38859;SDS011;24609;48.316;16.174;2023-07-16T03:17:34;6.10;;;5.38;;
38859;SDS011;24609;48.316;16.174;2023-07-16T03:20:00;7.25;;;5.55;;
38859;SDS011;24609;48.316;16.174;2023-07-16T03:22:26;5.75;;;5.18;;
38859;SDS011;24609;48.316;16.174;2023-07-16T03:24:52;6.07;;;5.00;;
38859;SDS011;24609;48.316;16.174;2023-07-16T03:27:17;7.13;;;6.32;;
38859;SDS011;24609;48.316;16.174;2023-07-16T03:29:43;8.00;;;6.10;;
38859;SDS011;24609;48.316;16.174;2023-07-16T03:32:08;6.25;;;5.40;;
38859;SDS011;24609;48.316;16.174;2023-07-16T03:34:34;8.80;;;5.28;;
38859;SDS011;24609;48.316;16.174;2023-07-16T03:37:00;7.40;;;5.22;;
38859;SDS011;24609;48.316;16.174;2023-07-16T03:39:25;8.73;;;5.15;;
38859;SDS011;24609;48.316;16.174;2023-07-16T03:41:51;7.20;;;5.40;;
38859;SDS011;24609;48.316;16.174;2023-07-16T03:44:17;5.93;;;5.32;;
38859;SDS011;24609;48.316;16.174;2023-07-16T03:46:42;8.10;;;6.13;;
38859;SDS011;24609;48.316;16.174;2023-07-16T03:49:08;7.20;;;5.72;;
38859;SDS011;24609;48.316;16.174;2023-07-16T03:51:34;7.88;;;5.97;;
38859;SDS011;24609;48.316;16.174;2023-07-16T03:54:00;7.13;;;6.18;;
38859;SDS011;24609;48.316;16.174;2023-07-16T03:56:25;10.15;;;6.40;;
38859;SDS011;24609;48.316;16.174;2023-07-16T03:58:51;6.25;;;5.63;;
38859;SDS011;24609;48.316;16.174;2023-07-16T04:01:17;5.72;;;5.10;;
38859;SDS011;24609;48.316;16.174;2023-07-16T04:03:42;7.30;;;5.38;;
38859;SDS011;24609;48.316;16.174;2023-07-16T04:06:09;7.20;;;5.40;;
38859;SDS011;24609;48.316;16.174;2023-07-16T04:08:35;6.72;;;5.78;;
38859;SDS011;24609;48.316;16.174;2023-07-16T04:11:02;6.65;;;5.68;;
38859;SDS011;24609;48.316;16.174;2023-07-16T04:13:29;6.60;;;5.43;;
38859;SDS011;24609;48.316;16.174;2023-07-16T04:15:55;7.90;;;5.53;;
38859;SDS011;24609;48.316;16.174;2023-07-16T04:18:22;9.95;;;6.63;;
38859;SDS011;24609;48.316;16.174;2023-07-16T04:20:48;7.75;;;5.65;;
38859;SDS011;24609;48.316;16.174;2023-07-16T04:23:14;8.95;;;5.57;;
38859;SDS011;24609;48.316;16.174;2023-07-16T04:25:39;6.57;;;5.90;;
38859;SDS011;24609;48.316;16.174;2023-07-16T04:28:05;7.80;;;6.53;;
38859;SDS011;24609;48.316;16.174;2023-07-16T04:30:31;7.35;;;6.22;;
38859;SDS011;24609;48.316;16.174;2023-07-16T04:32:57;7.70;;;5.68;;
38859;SDS011;24609;48.316;16.174;2023-07-16T04:35:22;8.48;;;5.85;;
38859;SDS011;24609;48.316;16.174;2023-07-16T04:37:48;8.20;;;5.95;;
38859;SDS011;24609;48.316;16.174;2023-07-16T04:40:14;9.73;;;6.05;;
38859;SDS011;24609;48.316;16.174;2023-07-16T04:42:39;7.05;;;6.10;;
38859;SDS011;24609;48.316;16.174;2023-07-16T04:45:05;6.63;;;5.97;;
38859;SDS011;24609;48.316;16.174;2023-07-16T04:47:31;9.07;;;6.50;;
38859;SDS011;24609;48.316;16.174;2023-07-16T04:50:00;9.05;;;6.65;;
38859;SDS011;24609;48.316;16.174;2023-07-16T04:52:26;7.32;;;6.63;;
38859;SDS011;24609;48.316;16.174;2023-07-16T04:54:52;11.00;;;6.00;;
38859;SDS011;24609;48.316;16.174;2023-07-16T04:57:17;8.13;;;5.72;;
38859;SDS011;24609;48.316;16.174;2023-07-16T04:59:43;9.18;;;6.50;;
38859;SDS011;24609;48.316;16.174;2023-07-16T05:02:09;8.48;;;6.47;;
38859;SDS011;24609;48.316;16.174;2023-07-16T05:04:34;8.15;;;6.72;;
38859;SDS011;24609;48.316;16.174;2023-07-16T05:07:04;10.05;;;6.85;;
38859;SDS011;24609;48.316;16.174;2023-07-16T05:09:30;7.85;;;5.78;;
38859;SDS011;24609;48.316;16.174;2023-07-16T05:11:55;10.57;;;6.47;;
38859;SDS011;24609;48.316;16.174;2023-07-16T05:14:21;10.48;;;6.43;;
38859;SDS011;24609;48.316;16.174;2023-07-16T05:16:47;6.75;;;6.05;;
38859;SDS011;24609;48.316;16.174;2023-07-16T05:19:13;8.60;;;6.32;;
38859;SDS011;24609;48.316;16.174;2023-07-16T05:21:38;9.50;;;6.13;;
38859;SDS011;24609;48.316;16.174;2023-07-16T05:24:04;7.50;;;6.40;;
38859;SDS011;24609;48.316;16.174;2023-07-16T05:26:30;10.07;;;6.15;;
38859;SDS011;24609;48.316;16.174;2023-07-16T05:28:56;7.55;;;5.70;;
38859;SDS011;24609;48.316;16.174;2023-07-16T05:31:21;8.65;;;6.50;;
38859;SDS011;24609;48.316;16.174;2023-07-16T05:33:47;6.47;;;5.88;;
38859;SDS011;24609;48.316;16.174;2023-07-16T05:36:13;7.57;;;6.28;;
38859;SDS011;24609;48.316;16.174;2023-07-16T05:38:38;6.43;;;5.82;;
38859;SDS011;24609;48.316;16.174;2023-07-16T05:41:04;7.60;;;5.97;;
38859;SDS011;24609;48.316;16.174;2023-07-16T05:43:30;6.88;;;5.55;;
38859;SDS011;24609;48.316;16.174;2023-07-16T05:45:56;9.70;;;5.68;;
38859;SDS011;24609;48.316;16.174;2023-07-16T05:48:22;8.85;;;6.28;;
38859;SDS011;24609;48.316;16.174;2023-07-16T05:50:48;5.82;;;5.32;;
38859;SDS011;24609;48.316;16.174;2023-07-16T05:53:14;7.85;;;5.35;;
38859;SDS011;24609;48.316;16.174;2023-07-16T05:55:40;6.03;;;5.28;;
38859;SDS011;24609;48.316;16.174;2023-07-16T05:58:06;6.10;;;5.28;;
38859;SDS011;24609;48.316;16.174;2023-07-16T06:00:31;7.57;;;5.25;;
38859;SDS011;24609;48.316;16.174;2023-07-16T06:02:57;6.47;;;4.80;;
38859;SDS011;24609;48.316;16.174;2023-07-16T06:05:23;6.70;;;5.18;;
38859;SDS011;24609;48.316;16.174;2023-07-16T06:07:51;5.30;;;4.80;;
38859;SDS011;24609;48.316;16.174;2023-07-16T06:10:17;6.10;;;4.80;;
38859;SDS011;24609;48.316;16.174;2023-07-16T06:12:43;5.78;;;5.18;;
38859;SDS011;24609;48.316;16.174;2023-07-16T06:15:08;11.07;;;5.68;;
38859;SDS011;24609;48.316;16.174;2023-07-16T06:17:34;7.57;;;4.40;;
38859;SDS011;24609;48.316;16.174;2023-07-16T06:20:01;6.57;;;5.53;;
38859;SDS011;24609;48.316;16.174;2023-07-16T06:22:27;7.22;;;4.90;;
38859;SDS011;24609;48.316;16.174;2023-07-16T06:24:53;7.22;;;4.93;;
38859;SDS011;24609;48.316;16.174;2023-07-16T06:27:19;5.28;;;4.78;;
38859;SDS011;24609;48.316;16.174;2023-07-16T06:29:44;7.25;;;5.40;;
38859;SDS011;24609;48.316;16.174;2023-07-16T06:32:10;6.57;;;5.28;;
38859;SDS011;24609;48.316;16.174;2023-07-16T06:34:36;7.72;;;4.70;;
38859;SDS011;24609;48.316;16.174;2023-07-16T06:37:01;6.50;;;5.18;;
38859;SDS011;24609;48.316;16.174;2023-07-16T06:39:27;6.85;;;5.38;;
38859;SDS011;24609;48.316;16.174;2023-07-16T06:41:53;6.55;;;5.35;;
38859;SDS011;24609;48.316;16.174;2023-07-16T06:44:18;8.05;;;5.57;;
38859;SDS011;24609;48.316;16.174;2023-07-16T06:46:44;7.22;;;5.28;;
38859;SDS011;24609;48.316;16.174;2023-07-16T06:49:10;7.43;;;4.45;;
38859;SDS011;24609;48.316;16.174;2023-07-16T06:51:35;5.72;;;4.75;;
38859;SDS011;24609;48.316;16.174;2023-07-16T06:54:01;6.18;;;4.72;;
38859;SDS011;24609;48.316;16.174;2023-07-16T06:56:27;6.90;;;4.53;;
38859;SDS011;24609;48.316;16.174;2023-07-16T06:58:52;7.50;;;4.80;;
38859;SDS011;24609;48.316;16.174;2023-07-16T07:01:18;6.32;;;5.03;;
38859;SDS011;24609;48.316;16.174;2023-07-16T07:03:44;4.90;;;4.07;;
38859;SDS011;24609;48.316;16.174;2023-07-16T07:06:09;6.80;;;4.20;;
38859;SDS011;24609;48.316;16.174;2023-07-16T07:08:36;4.97;;;4.50;;
38859;SDS011;24609;48.316;16.174;2023-07-16T07:11:02;5.57;;;4.75;;
38859;SDS011;24609;48.316;16.174;2023-07-16T07:13:29;5.85;;;4.20;;
38859;SDS011;24609;48.316;16.174;2023-07-16T07:15:54;4.72;;;4.30;;
38859;SDS011;24609;48.316;16.174;2023-07-16T07:18:21;4.03;;;3.60;;
38859;SDS011;24609;48.316;16.174;2023-07-16T07:20:47;4.47;;;3.38;;
38859;SDS011;24609;48.316;16.174;2023-07-16T07:23:13;7.75;;;3.25;;
38859;SDS011;24609;48.316;16.174;2023-07-16T07:25:39;3.33;;;2.20;;
38859;SDS011;24609;48.316;16.174;2023-07-16T07:28:06;6.53;;;2.50;;
38859;SDS011;24609;48.316;16.174;2023-07-16T07:30:32;3.72;;;2.47;;
38859;SDS011;24609;48.316;16.174;2023-07-16T07:32:58;3.47;;;2.10;;
38859;SDS011;24609;48.316;16.174;2023-07-16T07:35:23;3.78;;;2.10;;
38859;SDS011;24609;48.316;16.174;2023-07-16T07:37:49;5.20;;;2.15;;
38859;SDS011;24609;48.316;16.174;2023-07-16T07:40:15;4.43;;;2.05;;
38859;SDS011;24609;48.316;16.174;2023-07-16T07:42:41;4.95;;;2.80;;
38859;SDS011;24609;48.316;16.174;2023-07-16T07:45:06;3.55;;;2.00;;
38859;SDS011;24609;48.316;16.174;2023-07-16T07:47:32;3.03;;;2.25;;
38859;SDS011;24609;48.316;16.174;2023-07-16T07:49:58;4.72;;;2.50;;
38859;SDS011;24609;48.316;16.174;2023-07-16T07:52:24;3.78;;;2.00;;
38859;SDS011;24609;48.316;16.174;2023-07-16T07:54:51;2.15;;;1.92;;
38859;SDS011;24609;48.316;16.174;2023-07-16T07:57:17;3.40;;;2.47;;
38859;SDS011;24609;48.316;16.174;2023-07-16T07:59:44;3.10;;;2.80;;
38859;SDS011;24609;48.316;16.174;2023-07-16T08:02:10;4.05;;;3.10;;
38859;SDS011;24609;48.316;16.174;2023-07-16T08:04:36;4.40;;;3.05;;
38859;SDS011;24609;48.316;16.174;2023-07-16T08:07:01;7.43;;;2.78;;
38859;SDS011;24609;48.316;16.174;2023-07-16T08:09:27;4.82;;;3.17;;
38859;SDS011;24609;48.316;16.174;2023-07-16T08:11:53;4.97;;;2.80;;
38859;SDS011;24609;48.316;16.174;2023-07-16T08:14:19;10.90;;;3.30;;
38859;SDS011;24609;48.316;16.174;2023-07-16T08:16:44;3.17;;;2.92;;
38859;SDS011;24609;48.316;16.174;2023-07-16T08:19:10;3.50;;;3.13;;
38859;SDS011;24609;48.316;16.174;2023-07-16T08:21:36;5.72;;;2.65;;
38859;SDS011;24609;48.316;16.174;2023-07-16T08:24:03;3.22;;;2.20;;
38859;SDS011;24609;48.316;16.174;2023-07-16T08:26:32;2.88;;;2.60;;
38859;SDS011;24609;48.316;16.174;2023-07-16T08:28:57;4.28;;;2.80;;
38859;SDS011;24609;48.316;16.174;2023-07-16T08:31:24;3.30;;;2.50;;
38859;SDS011;24609;48.316;16.174;2023-07-16T08:33:50;3.30;;;2.78;;
38859;SDS011;24609;48.316;16.174;2023-07-16T08:36:15;3.63;;;2.70;;
38859;SDS011;24609;48.316;16.174;2023-07-16T08:38:41;3.03;;;2.30;;
38859;SDS011;24609;48.316;16.174;2023-07-16T08:41:07;3.40;;;3.00;;
38859;SDS011;24609;48.316;16.174;2023-07-16T08:43:33;3.88;;;2.47;;
38859;SDS011;24609;48.316;16.174;2023-07-16T08:46:00;2.67;;;2.40;;
38859;SDS011;24609;48.316;16.174;2023-07-16T08:48:27;3.50;;;1.93;;
38859;SDS011;24609;48.316;16.174;2023-07-16T08:50:54;5.65;;;2.60;;
38859;SDS011;24609;48.316;16.174;2023-07-16T08:53:22;4.90;;;2.20;;
38859;SDS011;24609;48.316;16.174;2023-07-16T08:55:48;2.65;;;2.42;;
38859;SDS011;24609;48.316;16.174;2023-07-16T08:58:14;4.90;;;2.38;;
38859;SDS011;24609;48.316;16.174;2023-07-16T09:00:44;3.70;;;2.60;;
38859;SDS011;24609;48.316;16.174;2023-07-16T09:03:12;2.75;;;2.33;;
38859;SDS011;24609;48.316;16.174;2023-07-16T09:05:39;2.65;;;2.25;;
38859;SDS011;24609;48.316;16.174;2023-07-16T09:08:05;2.95;;;2.50;;
38859;SDS011;24609;48.316;16.174;2023-07-16T09:10:31;4.30;;;2.38;;
38859;SDS011;24609;48.316;16.174;2023-07-16T09:12:57;2.72;;;2.00;;
38859;SDS011;24609;48.316;16.174;2023-07-16T09:15:24;2.67;;;2.33;;
38859;SDS011;24609;48.316;16.174;2023-07-16T09:17:53;2.33;;;2.10;;
38859;SDS011;24609;48.316;16.174;2023-07-16T09:22:46;5.38;;;2.05;;
38859;SDS011;24609;48.316;16.174;2023-07-16T09:25:13;4.60;;;2.60;;
38859;SDS011;24609;48.316;16.174;2023-07-16T09:27:38;2.92;;;1.92;;
38859;SDS011;24609;48.316;16.174;2023-07-16T09:30:04;2.50;;;2.30;;
38859;SDS011;24609;48.316;16.174;2023-07-16T09:32:35;3.07;;;2.00;;
38859;SDS011;24609;48.316;16.174;2023-07-16T09:35:06;3.72;;;2.38;;
38859;SDS011;24609;48.316;16.174;2023-07-16T09:37:32;3.00;;;2.25;;
38859;SDS011;24609;48.316;16.174;2023-07-16T09:39:58;4.40;;;2.30;;
38859;SDS011;24609;48.316;16.174;2023-07-16T09:42:24;2.92;;;2.10;;
38859;SDS011;24609;48.316;16.174;2023-07-16T09:44:50;2.50;;;2.30;;
38859;SDS011;24609;48.316;16.174;2023-07-16T09:47:19;3.47;;;2.60;;
38859;SDS011;24609;48.316;16.174;2023-07-16T09:49:44;2.45;;;2.20;;
38859;SDS011;24609;48.316;16.174;2023-07-16T09:52:11;2.33;;;2.10;;
38859;SDS011;24609;48.316;16.174;2023-07-16T09:54:38;3.10;;;1.90;;
38859;SDS011;24609;48.316;16.174;2023-07-16T09:57:05;2.13;;;1.90;;
38859;SDS011;24609;48.316;16.174;2023-07-16T09:59:32;2.40;;;2.20;;
38859;SDS011;24609;48.316;16.174;2023-07-16T10:01:59;2.97;;;2.08;;
38859;SDS011;24609;48.316;16.174;2023-07-16T10:04:25;2.40;;;2.20;;
38859;SDS011;24609;48.316;16.174;2023-07-16T10:06:55;2.30;;;2.05;;
38859;SDS011;24609;48.316;16.174;2023-07-16T10:09:50;5.03;;;2.20;;
38859;SDS011;24609;48.316;16.174;2023-07-16T10:17:21;4.70;;;2.23;;
38859;SDS011;24609;48.316;16.174;2023-07-16T10:19:58;5.78;;;2.60;;
38859;SDS011;24609;48.316;16.174;2023-07-16T10:22:34;2.75;;;2.42;;
38859;SDS011;24609;48.316;16.174;2023-07-16T10:27:33;4.65;;;2.40;;
38859;SDS011;24609;48.316;16.174;2023-07-16T10:29:59;4.82;;;2.67;;
38859;SDS011;24609;48.316;16.174;2023-07-16T10:32:28;3.22;;;2.50;;
38859;SDS011;24609;48.316;16.174;2023-07-16T10:34:54;2.70;;;2.28;;
38859;SDS011;24609;48.316;16.174;2023-07-16T10:37:21;2.55;;;2.28;;
38859;SDS011;24609;48.316;16.174;2023-07-16T10:39:48;3.72;;;2.10;;
38859;SDS011;24609;48.316;16.174;2023-07-16T10:44:43;2.88;;;2.22;;
38859;SDS011;24609;48.316;16.174;2023-07-16T10:47:17;3.40;;;2.20;;
38859;SDS011;24609;48.316;16.174;2023-07-16T10:49:46;3.10;;;2.35;;
38859;SDS011;24609;48.316;16.174;2023-07-16T10:52:12;4.15;;;2.10;;
38859;SDS011;24609;48.316;16.174;2023-07-16T10:54:37;2.90;;;2.20;;
38859;SDS011;24609;48.316;16.174;2023-07-16T10:57:05;2.33;;;2.13;;
38859;SDS011;24609;48.316;16.174;2023-07-16T10:59:31;2.55;;;2.05;;
38859;SDS011;24609;48.316;16.174;2023-07-16T11:01:57;4.03;;;2.08;;
38859;SDS011;24609;48.316;16.174;2023-07-16T11:04:23;4.07;;;2.47;;
38859;SDS011;24609;48.316;16.174;2023-07-16T11:06:52;3.65;;;2.10;;
38859;SDS011;24609;48.316;16.174;2023-07-16T11:09:18;3.75;;;2.40;;
38859;SDS011;24609;48.316;16.174;2023-07-16T11:11:43;2.75;;;2.25;;
38859;SDS011;24609;48.316;16.174;2023-07-16T11:14:09;3.58;;;2.50;;
38859;SDS011;24609;48.316;16.174;2023-07-16T11:16:35;2.13;;;2.00;;
38859;SDS011;24609;48.316;16.174;2023-07-16T11:19:05;3.80;;;2.15;;
38859;SDS011;24609;48.316;16.174;2023-07-16T11:21:33;2.97;;;2.30;;
38859;SDS011;24609;48.316;16.174;2023-07-16T11:24:14;4.93;;;2.40;;
38859;SDS011;24609;48.316;16.174;2023-07-16T11:26:48;3.95;;;2.30;;
38859;SDS011;24609;48.316;16.174;2023-07-16T11:29:15;2.72;;;2.10;;
38859;SDS011;24609;48.316;16.174;2023-07-16T11:31:41;3.25;;;2.40;;
38859;SDS011;24609;48.316;16.174;2023-07-16T11:34:07;2.72;;;2.08;;
38859;SDS011;24609;48.316;16.174;2023-07-16T11:36:33;2.38;;;1.98;;
38859;SDS011;24609;48.316;16.174;2023-07-16T11:38:59;2.67;;;2.28;;
38859;SDS011;24609;48.316;16.174;2023-07-16T11:41:27;2.15;;;1.95;;
38859;SDS011;24609;48.316;16.174;2023-07-16T11:43:53;5.72;;;2.13;;
38859;SDS011;24609;48.316;16.174;2023-07-16T11:46:19;8.25;;;2.20;;
38859;SDS011;24609;48.316;16.174;2023-07-16T11:48:44;3.08;;;2.03;;
38859;SDS011;24609;48.316;16.174;2023-07-16T11:51:10;3.88;;;2.08;;
38859;SDS011;24609;48.316;16.174;2023-07-16T11:53:36;7.20;;;2.40;;
38859;SDS011;24609;48.316;16.174;2023-07-16T11:56:01;5.90;;;2.20;;
38859;SDS011;24609;48.316;16.174;2023-07-16T11:58:27;4.10;;;2.10;;
38859;SDS011;24609;48.316;16.174;2023-07-16T12:00:53;4.78;;;2.00;;
38859;SDS011;24609;48.316;16.174;2023-07-16T12:03:18;3.25;;;2.22;;
38859;SDS011;24609;48.316;16.174;2023-07-16T12:05:44;2.35;;;1.98;;
38859;SDS011;24609;48.316;16.174;2023-07-16T12:08:10;2.20;;;2.00;;
38859;SDS011;24609;48.316;16.174;2023-07-16T12:10:42;3.38;;;1.90;;
38859;SDS011;24609;48.316;16.174;2023-07-16T12:13:08;5.15;;;2.08;;
38859;SDS011;24609;48.316;16.174;2023-07-16T12:15:34;3.03;;;1.90;;
38859;SDS011;24609;48.316;16.174;2023-07-16T12:17:59;1.90;;;1.70;;
38859;SDS011;24609;48.316;16.174;2023-07-16T12:20:25;3.20;;;1.92;;
38859;SDS011;24609;48.316;16.174;2023-07-16T12:22:51;2.03;;;1.83;;
38859;SDS011;24609;48.316;16.174;2023-07-16T12:25:17;2.47;;;1.90;;
38859;SDS011;24609;48.316;16.174;2023-07-16T12:27:44;2.63;;;1.73;;
38859;SDS011;24609;48.316;16.174;2023-07-16T12:30:10;2.95;;;2.28;;
38859;SDS011;24609;48.316;16.174;2023-07-16T12:32:36;2.17;;;1.80;;
38859;SDS011;24609;48.316;16.174;2023-07-16T12:35:02;3.58;;;2.00;;
38859;SDS011;24609;48.316;16.174;2023-07-16T12:37:29;3.67;;;2.20;;
38859;SDS011;24609;48.316;16.174;2023-07-16T12:39:55;3.85;;;1.80;;
38859;SDS011;24609;48.316;16.174;2023-07-16T12:42:20;2.70;;;1.67;;
38859;SDS011;24609;48.316;16.174;2023-07-16T12:44:46;2.15;;;1.95;;
38859;SDS011;24609;48.316;16.174;2023-07-16T12:47:12;3.50;;;2.08;;
38859;SDS011;24609;48.316;16.174;2023-07-16T12:49:38;2.78;;;1.95;;
38859;SDS011;24609;48.316;16.174;2023-07-16T12:52:03;2.63;;;1.60;;
38859;SDS011;24609;48.316;16.174;2023-07-16T12:54:29;4.43;;;2.17;;
38859;SDS011;24609;48.316;16.174;2023-07-16T12:56:55;2.90;;;1.90;;
38859;SDS011;24609;48.316;16.174;2023-07-16T12:59:21;3.25;;;1.98;;
38859;SDS011;24609;48.316;16.174;2023-07-16T13:01:46;1.70;;;1.60;;
38859;SDS011;24609;48.316;16.174;2023-07-16T13:04:12;5.30;;;1.50;;
38859;SDS011;24609;48.316;16.174;2023-07-16T13:06:37;3.05;;;1.50;;
38859;SDS011;24609;48.316;16.174;2023-07-16T13:09:03;1.95;;;1.42;;
38859;SDS011;24609;48.316;16.174;2023-07-16T13:11:30;2.40;;;1.40;;
38859;SDS011;24609;48.316;16.174;2023-07-16T13:13:56;4.07;;;1.50;;
38859;SDS011;24609;48.316;16.174;2023-07-16T13:16:24;3.30;;;1.75;;
38859;SDS011;24609;48.316;16.174;2023-07-16T13:18:51;3.92;;;1.70;;
38859;SDS011;24609;48.316;16.174;2023-07-16T13:21:17;1.60;;;1.15;;
38859;SDS011;24609;48.316;16.174;2023-07-16T13:23:42;2.75;;;1.70;;
38859;SDS011;24609;48.316;16.174;2023-07-16T13:26:08;2.30;;;1.70;;
38859;SDS011;24609;48.316;16.174;2023-07-16T13:28:34;1.50;;;1.40;;
38859;SDS011;24609;48.316;16.174;2023-07-16T13:31:00;2.63;;;1.80;;
38859;SDS011;24609;48.316;16.174;2023-07-16T13:33:25;1.98;;;1.60;;
38859;SDS011;24609;48.316;16.174;2023-07-16T13:35:51;1.58;;;1.48;;
38859;SDS011;24609;48.316;16.174;2023-07-16T13:38:17;2.55;;;1.80;;
38859;SDS011;24609;48.316;16.174;2023-07-16T13:40:42;3.35;;;1.30;;
38859;SDS011;24609;48.316;16.174;2023-07-16T13:43:08;1.70;;;1.40;;
38859;SDS011;24609;48.316;16.174;2023-07-16T13:45:34;1.40;;;1.30;;
38859;SDS011;24609;48.316;16.174;2023-07-16T13:48:00;1.67;;;1.20;;
38859;SDS011;24609;48.316;16.174;2023-07-16T13:50:26;2.65;;;1.42;;
38859;SDS011;24609;48.316;16.174;2023-07-16T13:52:52;2.58;;;1.50;;
38859;SDS011;24609;48.316;16.174;2023-07-16T13:55:17;2.28;;;1.30;;
38859;SDS011;24609;48.316;16.174;2023-07-16T13:57:43;1.52;;;1.40;;
38859;SDS011;24609;48.316;16.174;2023-07-16T14:00:09;1.70;;;1.20;;
38859;SDS011;24609;48.316;16.174;2023-07-16T14:02:35;1.95;;;1.35;;
38859;SDS011;24609;48.316;16.174;2023-07-16T14:05:01;1.88;;;1.15;;
38859;SDS011;24609;48.316;16.174;2023-07-16T14:07:27;2.67;;;1.50;;
38859;SDS011;24609;48.316;16.174;2023-07-16T14:09:53;3.85;;;1.50;;
38859;SDS011;24609;48.316;16.174;2023-07-16T14:12:19;4.55;;;1.50;;
38859;SDS011;24609;48.316;16.174;2023-07-16T14:14:45;3.58;;;1.42;;
38859;SDS011;24609;48.316;16.174;2023-07-16T14:17:10;3.20;;;1.50;;
38859;SDS011;24609;48.316;16.174;2023-07-16T14:19:36;2.38;;;1.38;;
38859;SDS011;24609;48.316;16.174;2023-07-16T14:22:02;1.85;;;1.40;;
38859;SDS011;24609;48.316;16.174;2023-07-16T14:24:27;1.60;;;1.33;;
38859;SDS011;24609;48.316;16.174;2023-07-16T14:26:53;2.67;;;1.40;;
38859;SDS011;24609;48.316;16.174;2023-07-16T14:29:19;1.80;;;1.35;;
38859;SDS011;24609;48.316;16.174;2023-07-16T14:31:45;3.00;;;1.45;;
38859;SDS011;24609;48.316;16.174;2023-07-16T14:34:10;1.52;;;1.42;;
38859;SDS011;24609;48.316;16.174;2023-07-16T14:36:36;1.70;;;1.27;;
38859;SDS011;24609;48.316;16.174;2023-07-16T14:39:02;1.63;;;1.13;;
38859;SDS011;24609;48.316;16.174;2023-07-16T14:41:28;1.97;;;1.57;;
38859;SDS011;24609;48.316;16.174;2023-07-16T14:43:54;2.60;;;1.40;;
38859;SDS011;24609;48.316;16.174;2023-07-16T14:46:20;2.50;;;1.70;;